createdAt,value
2018-06-30T00:01:37.206Z,95479.11
2018-06-30T00:04:06.553Z,95472.66
2018-06-30T00:06:35.965Z,95470.49
2018-06-30T00:09:09.126Z,95471.40
2018-06-30T00:11:38.655Z,95464.86
2018-06-30T00:14:08.017Z,95463.56
2018-06-30T00:16:37.369Z,95460.80
2018-06-30T00:19:06.744Z,95455.16
2018-06-30T00:21:36.146Z,95450.84
2018-06-30T00:24:05.533Z,95449.49
2018-06-30T00:26:34.898Z,95451.75
2018-06-30T00:29:04.374Z,95445.53
2018-06-30T00:31:33.730Z,95440.75
2018-06-30T00:34:03.105Z,95440.80
2018-06-30T00:36:32.459Z,95444.30
2018-06-30T00:39:01.813Z,95437.09
2018-06-30T00:41:31.182Z,95440.67
2018-06-30T00:44:00.546Z,95436.88
2018-06-30T00:46:29.906Z,95436.08
2018-06-30T00:48:59.258Z,95431.57
2018-06-30T00:51:28.633Z,95428.91
2018-06-30T00:53:58.043Z,95429.95
2018-06-30T00:56:27.461Z,95432.42
2018-06-30T00:58:56.864Z,95433.78
2018-06-30T01:01:26.297Z,95426.52
2018-06-30T01:03:55.665Z,95427.66
2018-06-30T01:06:25.012Z,95432.33
2018-06-30T01:08:54.366Z,95435.38
2018-06-30T01:11:23.739Z,95434.94
2018-06-30T01:13:53.193Z,95438.22
2018-06-30T01:16:22.618Z,95429.12
2018-06-30T01:18:52.015Z,95428.27
2018-06-30T01:21:21.363Z,95432.62
2018-06-30T01:23:50.710Z,95437.18
2018-06-30T01:26:20.081Z,95431.86
2018-06-30T01:28:49.542Z,95432.48
2018-06-30T01:31:18.986Z,95431.94
2018-06-30T01:33:48.370Z,95434.14
2018-06-30T01:36:17.733Z,95432.53
2018-06-30T01:38:47.112Z,95425.86
2018-06-30T01:41:16.485Z,95433.73
2018-06-30T01:43:46.140Z,95422.92
2018-06-30T01:46:15.536Z,95426.70
2018-06-30T01:48:44.902Z,95424.86
2018-06-30T01:51:14.263Z,95416.52
2018-06-30T01:53:43.674Z,95414.59
2018-06-30T01:56:13.048Z,95412.82
2018-06-30T01:58:42.402Z,95414.21
2018-06-30T02:01:11.763Z,95414.30
2018-06-30T02:03:41.132Z,95411.64
2018-06-30T02:06:10.514Z,95415.69
2018-06-30T02:08:39.995Z,95415.61
2018-06-30T02:11:09.424Z,95416.45
2018-06-30T02:13:38.764Z,95413.56
2018-06-30T02:16:08.145Z,95412.80
2018-06-30T02:18:37.540Z,95421.70
2018-06-30T02:21:06.942Z,95421.75
2018-06-30T02:23:36.050Z,95416.34
2018-06-30T02:26:05.593Z,95418.23
2018-06-30T02:28:34.931Z,95409.83
2018-06-30T02:31:04.309Z,95410.40
2018-06-30T02:33:33.697Z,95415.30
2018-06-30T02:36:03.038Z,95418.08
2018-06-30T02:38:32.544Z,95413.22
2018-06-30T02:41:01.912Z,95414.58
2018-06-30T02:43:31.451Z,95421.36
2018-06-30T02:46:00.721Z,95414.18
2018-06-30T02:48:30.016Z,95415.58
2018-06-30T02:50:59.420Z,95412.37
2018-06-30T02:53:28.961Z,95417.54
2018-06-30T02:55:58.458Z,95418.36
2018-06-30T02:58:27.867Z,95414.08
2018-06-30T03:00:59.024Z,95420.02
2018-06-30T03:03:29.092Z,95418.70
2018-06-30T03:05:59.420Z,95415.16
2018-06-30T03:08:29.362Z,95419.75
2018-06-30T03:10:58.851Z,95419.47
2018-06-30T03:13:28.288Z,95425.41
2018-06-30T03:15:58.692Z,95416.77
2018-06-30T03:18:28.126Z,95419.81
2018-06-30T03:20:57.969Z,95417.66
2018-06-30T03:23:27.391Z,95419.85
2018-06-30T03:25:56.833Z,95413.95
2018-06-30T03:28:26.217Z,95416.65
2018-06-30T03:30:55.639Z,95419.08
2018-06-30T03:33:25.058Z,95418.54
2018-06-30T03:35:54.494Z,95421.55
2018-06-30T03:38:23.794Z,95415.03
2018-06-30T03:40:53.220Z,95417.50
2018-06-30T03:43:22.338Z,95422.05
2018-06-30T03:45:51.695Z,95419.39
2018-06-30T03:48:21.146Z,95421.31
2018-06-30T03:50:50.527Z,95416.48
2018-06-30T03:53:19.871Z,95419.77
2018-06-30T03:55:49.214Z,95419.77
2018-06-30T03:58:18.563Z,95418.68
2018-06-30T04:00:47.942Z,95417.06
2018-06-30T04:03:17.349Z,95416.22
2018-06-30T04:05:46.741Z,95416.48
2018-06-30T04:08:16.097Z,95409.47
2018-06-30T04:10:45.539Z,95411.40
2018-06-30T04:13:14.966Z,95408.09
2018-06-30T04:15:44.333Z,95404.58
2018-06-30T04:18:13.690Z,95404.84
2018-06-30T04:20:43.125Z,95411.33
2018-06-30T04:23:12.518Z,95410.48
2018-06-30T04:25:41.939Z,95406.20
2018-06-30T04:28:11.465Z,95412.64
2018-06-30T04:30:41.471Z,95413.64
2018-06-30T04:33:10.808Z,95413.95
2018-06-30T04:35:40.158Z,95415.30
2018-06-30T04:38:09.567Z,95411.72
2018-06-30T04:40:38.933Z,95414.92
2018-06-30T04:43:08.278Z,95413.50
2018-06-30T04:45:37.633Z,95410.26
2018-06-30T04:48:07.805Z,95415.12
2018-06-30T04:50:37.303Z,95412.61
2018-06-30T04:53:06.728Z,95413.41
2018-06-30T04:55:36.216Z,95409.06
2018-06-30T04:58:05.564Z,95408.44
2018-06-30T05:00:34.930Z,95412.18
2018-06-30T05:03:04.260Z,95409.40
2018-06-30T05:05:33.605Z,95407.28
2018-06-30T05:08:02.981Z,95408.55
2018-06-30T05:10:32.782Z,95411.41
2018-06-30T05:13:02.959Z,95410.78
2018-06-30T05:15:33.020Z,95410.44
2018-06-30T05:18:02.475Z,95410.39
2018-06-30T05:20:31.820Z,95404.76
2018-06-30T05:23:01.202Z,95408.70
2018-06-30T05:25:30.646Z,95411.62
2018-06-30T05:28:00.918Z,95417.25
2018-06-30T05:30:30.867Z,95418.25
2018-06-30T05:33:01.482Z,95419.16
2018-06-30T05:35:31.776Z,95416.52
2018-06-30T05:38:01.354Z,95414.95
2018-06-30T05:40:31.502Z,95421.34
2018-06-30T05:43:01.045Z,95420.14
2018-06-30T05:45:31.415Z,95419.09
2018-06-30T05:48:01.061Z,95418.78
2018-06-30T05:50:30.809Z,95411.41
2018-06-30T05:53:00.286Z,95411.65
2018-06-30T05:55:29.671Z,95402.41
2018-06-30T05:57:59.262Z,95405.83
2018-06-30T06:00:28.787Z,95409.52
2018-06-30T06:02:58.210Z,95408.02
2018-06-30T06:05:27.773Z,95400.91
2018-06-30T06:07:57.425Z,95401.03
2018-06-30T06:10:26.902Z,95409.09
2018-06-30T06:12:56.336Z,95408.12
2018-06-30T06:15:26.432Z,95409.84
2018-06-30T06:17:55.773Z,95413.19
2018-06-30T06:20:25.208Z,95411.96
2018-06-30T06:22:54.849Z,95410.73
2018-06-30T06:25:24.237Z,95411.97
2018-06-30T06:27:53.737Z,95417.25
2018-06-30T06:30:23.105Z,95420.87
2018-06-30T06:32:52.635Z,95424.28
2018-06-30T06:35:22.033Z,95421.95
2018-06-30T06:37:51.420Z,95421.34
2018-06-30T06:40:20.825Z,95414.80
2018-06-30T06:42:50.249Z,95429.03
2018-06-30T06:45:19.640Z,95429.31
2018-06-30T06:47:49.024Z,95433.75
2018-06-30T06:50:18.469Z,95431.15
2018-06-30T06:52:47.884Z,95433.20
2018-06-30T06:55:17.255Z,95429.02
2018-06-30T06:57:46.649Z,95434.73
2018-06-30T07:00:16.025Z,95426.06
2018-06-30T07:02:45.163Z,95428.45
2018-06-30T07:05:14.598Z,95426.77
2018-06-30T07:07:44.022Z,95424.92
2018-06-30T07:10:13.394Z,95426.00
2018-06-30T07:12:42.752Z,95428.41
2018-06-30T07:15:12.439Z,95423.76
2018-06-30T07:17:41.774Z,95418.80
2018-06-30T07:20:11.237Z,95423.27
2018-06-30T07:22:40.474Z,95430.30
2018-06-30T07:25:09.847Z,95431.06
2018-06-30T07:27:39.255Z,95437.85
2018-06-30T07:30:09.909Z,95436.39
2018-06-30T07:32:40.883Z,95436.97
2018-06-30T07:35:10.314Z,95442.30
2018-06-30T07:37:39.732Z,95446.29
2018-06-30T07:40:09.217Z,95443.39
2018-06-30T07:42:38.591Z,95446.03
2018-06-30T07:45:07.951Z,95441.64
2018-06-30T07:47:37.341Z,95441.40
2018-06-30T07:50:06.769Z,95442.76
2018-06-30T07:52:36.103Z,95437.23
2018-06-30T07:55:05.590Z,95435.39
2018-06-30T07:57:34.922Z,95434.58
2018-06-30T08:00:04.976Z,95432.02
2018-06-30T08:02:34.316Z,95434.02
2018-06-30T08:05:03.717Z,95436.63
2018-06-30T08:07:33.096Z,95433.16
2018-06-30T08:10:02.556Z,95433.89
2018-06-30T08:12:31.956Z,95434.46
2018-06-30T08:15:01.329Z,95432.88
2018-06-30T08:17:30.752Z,95439.30
2018-06-30T08:20:00.137Z,95438.62
2018-06-30T08:22:29.670Z,95435.28
2018-06-30T08:24:59.073Z,95441.23
2018-06-30T08:27:28.712Z,95442.13
2018-06-30T08:29:58.161Z,95441.06
2018-06-30T08:32:27.690Z,95442.20
2018-06-30T08:34:57.115Z,95444.72
2018-06-30T08:37:26.719Z,95443.92
2018-06-30T08:39:56.172Z,95446.64
2018-06-30T08:42:26.444Z,95448.81
2018-06-30T08:44:55.895Z,95448.42
2018-06-30T08:47:25.361Z,95447.75
2018-06-30T08:49:54.782Z,95450.78
2018-06-30T08:52:24.142Z,95451.50
2018-06-30T08:54:59.867Z,95450.16
2018-06-30T08:57:29.397Z,95447.31
2018-06-30T08:59:58.905Z,95445.77
2018-06-30T09:02:28.407Z,95449.77
2018-06-30T09:04:57.905Z,95450.16
2018-06-30T09:07:27.404Z,95453.03
2018-06-30T09:09:56.932Z,95449.98
2018-06-30T09:12:26.480Z,95450.23
2018-06-30T09:14:57.061Z,95445.39
2018-06-30T09:17:27.022Z,95449.43
2018-06-30T09:19:56.858Z,95450.44
2018-06-30T09:22:26.148Z,95448.93
2018-06-30T09:24:55.592Z,95442.84
2018-06-30T09:27:25.245Z,95438.12
2018-06-30T09:29:54.693Z,95443.72
2018-06-30T09:32:24.223Z,95441.77
2018-06-30T09:34:54.131Z,95443.37
2018-06-30T09:37:23.572Z,95444.04
2018-06-30T09:39:53.350Z,95443.13
2018-06-30T09:42:22.830Z,95446.91
2018-06-30T09:44:52.257Z,95446.10
2018-06-30T09:47:21.674Z,95449.75
2018-06-30T09:49:52.031Z,95452.27
2018-06-30T09:52:21.429Z,95447.84
2018-06-30T09:54:50.828Z,95453.08
2018-06-30T09:57:20.416Z,95451.60
2018-06-30T09:59:50.489Z,95446.12
2018-06-30T10:02:20.964Z,95448.66
2018-06-30T10:04:51.338Z,95444.78
2018-06-30T10:07:20.702Z,95445.45
2018-06-30T10:09:50.928Z,95443.39
2018-06-30T10:12:20.365Z,95440.32
2018-06-30T10:14:49.850Z,95437.92
2018-06-30T10:17:19.269Z,95436.31
2018-06-30T10:19:48.720Z,95428.30
2018-06-30T10:22:18.134Z,95432.17
2018-06-30T10:24:47.485Z,95431.63
2018-06-30T10:27:16.849Z,95428.03
2018-06-30T10:29:46.231Z,95428.97
2018-06-30T10:32:15.680Z,95433.50
2018-06-30T10:34:45.084Z,95431.00
2018-06-30T10:37:14.658Z,95429.49
2018-06-30T10:39:44.530Z,95425.39
2018-06-30T10:42:14.094Z,95428.52
2018-06-30T10:44:43.506Z,95426.09
2018-06-30T10:47:13.136Z,95426.39
2018-06-30T10:49:43.554Z,95424.02
2018-06-30T10:52:12.967Z,95424.22
2018-06-30T10:54:42.318Z,95422.33
2018-06-30T10:57:11.431Z,95416.41
2018-06-30T10:59:40.848Z,95423.77
2018-06-30T11:02:10.313Z,95417.25
2018-06-30T11:04:39.719Z,95418.10
2018-06-30T11:07:09.074Z,95420.03
2018-06-30T11:09:38.478Z,95418.86
2018-06-30T11:12:07.877Z,95414.63
2018-06-30T11:14:37.278Z,95416.53
2018-06-30T11:17:07.732Z,95409.83
2018-06-30T11:19:37.371Z,95411.54
2018-06-30T11:22:06.998Z,95405.55
2018-06-30T11:24:37.492Z,95403.70
2018-06-30T11:27:07.113Z,95401.97
2018-06-30T11:29:36.481Z,95410.45
2018-06-30T11:32:06.011Z,95406.82
2018-06-30T11:34:35.891Z,95402.77
2018-06-30T11:37:05.530Z,95397.18
2018-06-30T11:39:34.933Z,95396.86
2018-06-30T11:42:04.346Z,95397.78
2018-06-30T11:44:33.811Z,95398.42
2018-06-30T11:47:03.341Z,95393.92
2018-06-30T11:49:32.901Z,95392.42
2018-06-30T11:52:02.284Z,95391.75
2018-06-30T11:54:31.788Z,95384.67
2018-06-30T11:57:01.168Z,95393.43
2018-06-30T11:59:30.801Z,95388.08
2018-06-30T12:02:00.302Z,95395.35
2018-06-30T12:04:29.938Z,95392.31
2018-06-30T12:06:59.696Z,95385.36
2018-06-30T12:09:29.242Z,95394.33
2018-06-30T12:11:58.789Z,95387.69
2018-06-30T12:14:28.214Z,95387.16
2018-06-30T12:16:57.692Z,95389.50
2018-06-30T12:19:27.305Z,95387.38
2018-06-30T12:21:57.323Z,95380.05
2018-06-30T12:24:26.816Z,95380.75
2018-06-30T12:26:56.255Z,95384.77
2018-06-30T12:29:25.741Z,95385.77
2018-06-30T12:31:55.172Z,95384.87
2018-06-30T12:34:24.560Z,95390.19
2018-06-30T12:36:54.003Z,95384.91
2018-06-30T12:39:23.488Z,95395.66
2018-06-30T12:41:53.175Z,95393.32
2018-06-30T12:44:22.558Z,95388.95
2018-06-30T12:46:52.189Z,95392.06
2018-06-30T12:49:21.676Z,95384.80
2018-06-30T12:51:51.062Z,95384.56
2018-06-30T12:54:20.565Z,95380.63
2018-06-30T12:56:50.021Z,95380.63
2018-06-30T12:59:19.460Z,95382.86
2018-06-30T13:01:48.885Z,95388.41
2018-06-30T13:04:18.279Z,95392.42
2018-06-30T13:06:47.823Z,95401.52
2018-06-30T13:09:17.356Z,95400.45
2018-06-30T13:11:46.626Z,95401.62
2018-06-30T13:14:16.048Z,95398.23
2018-06-30T13:16:45.486Z,95403.02
2018-06-30T13:19:15.218Z,95394.56
2018-06-30T13:21:45.440Z,95400.84
2018-06-30T13:24:15.181Z,95402.25
2018-06-30T13:26:44.353Z,95403.54
2018-06-30T13:29:13.759Z,95394.92
2018-06-30T13:31:43.177Z,95396.25
2018-06-30T13:34:13.244Z,95390.82
2018-06-30T13:36:42.747Z,95383.95
2018-06-30T13:39:14.351Z,95385.96
2018-06-30T13:41:44.143Z,95395.91
2018-06-30T13:44:14.006Z,95396.35
2018-06-30T13:46:43.442Z,95402.88
2018-06-30T13:49:13.183Z,95391.27
2018-06-30T13:51:42.586Z,95394.00
2018-06-30T13:54:12.026Z,95400.02
2018-06-30T13:56:41.401Z,95387.52
2018-06-30T13:59:10.863Z,95389.94
2018-06-30T14:01:40.275Z,95392.11
2018-06-30T14:04:09.645Z,95392.23
2018-06-30T14:06:39.064Z,95391.52
2018-06-30T14:09:11.047Z,95384.23
2018-06-30T14:11:40.852Z,95382.69
2018-06-30T14:14:10.517Z,95383.84
2018-06-30T14:16:40.805Z,95383.48
2018-06-30T14:19:10.298Z,95384.59
2018-06-30T14:21:40.038Z,95394.61
2018-06-30T14:24:09.544Z,95387.52
2018-06-30T14:26:39.115Z,95392.16
2018-06-30T14:29:08.564Z,95392.50
2018-06-30T14:31:38.106Z,95395.60
2018-06-30T14:34:07.641Z,95392.30
2018-06-30T14:36:37.251Z,95384.59
2018-06-30T14:39:10.946Z,95390.78
2018-06-30T14:41:40.480Z,95384.95
2018-06-30T14:44:10.038Z,95389.18
2018-06-30T14:46:39.464Z,95389.86
2018-06-30T14:49:08.914Z,95389.63
2018-06-30T14:51:38.295Z,95389.42
2018-06-30T14:54:07.732Z,95387.81
2018-06-30T14:56:37.122Z,95385.95
2018-06-30T14:59:06.645Z,95386.60
2018-06-30T15:01:36.035Z,95393.56
2018-06-30T15:04:05.642Z,95393.59
2018-06-30T15:06:35.536Z,95395.05
2018-06-30T15:09:08.313Z,95396.84
2018-06-30T15:11:38.084Z,95391.72
2018-06-30T15:14:07.558Z,95392.13
2018-06-30T15:16:37.442Z,95387.45
2018-06-30T15:19:07.258Z,95385.23
2018-06-30T15:21:36.643Z,95383.98
2018-06-30T15:24:06.691Z,95389.91
2018-06-30T15:26:36.068Z,95390.86
2018-06-30T15:29:05.775Z,95394.94
2018-06-30T15:31:35.286Z,95393.78
2018-06-30T15:34:04.760Z,95397.41
2018-06-30T15:36:34.257Z,95392.54
2018-06-30T15:39:04.230Z,95403.81
2018-06-30T15:41:33.678Z,95397.66
2018-06-30T15:44:03.302Z,95390.50
2018-06-30T15:46:32.753Z,95393.13
2018-06-30T15:49:02.305Z,95401.42
2018-06-30T15:51:32.252Z,95386.66
2018-06-30T15:54:01.595Z,95397.67
2018-06-30T15:56:31.125Z,95395.86
2018-06-30T15:59:00.668Z,95395.73
2018-06-30T16:01:30.131Z,95403.11
2018-06-30T16:03:59.696Z,95400.48
2018-06-30T16:06:29.446Z,95401.64
2018-06-30T16:08:59.026Z,95402.41
2018-06-30T16:11:28.526Z,95401.47
2018-06-30T16:13:58.081Z,95402.72
2018-06-30T16:16:27.528Z,95401.05
2018-06-30T16:18:57.054Z,95396.70
2018-06-30T16:21:26.482Z,95395.38
2018-06-30T16:23:55.984Z,95396.50
2018-06-30T16:26:25.458Z,95401.15
2018-06-30T16:28:55.293Z,95399.30
2018-06-30T16:31:24.635Z,95397.61
2018-06-30T16:33:54.374Z,95393.02
2018-06-30T16:36:23.727Z,95392.76
2018-06-30T16:38:53.183Z,95397.84
2018-06-30T16:41:22.782Z,95397.08
2018-06-30T16:43:52.155Z,95401.38
2018-06-30T16:46:21.573Z,95400.34
2018-06-30T16:48:50.958Z,95398.18
2018-06-30T16:51:20.330Z,95398.30
2018-06-30T16:53:49.734Z,95402.17
2018-06-30T16:56:19.185Z,95400.34
2018-06-30T16:58:48.622Z,95403.63
2018-06-30T17:01:18.170Z,95401.91
2018-06-30T17:03:48.633Z,95398.27
2018-06-30T17:06:18.210Z,95395.73
2018-06-30T17:08:48.025Z,95405.96
2018-06-30T17:11:18.491Z,95406.30
2018-06-30T17:13:47.941Z,95406.62
2018-06-30T17:16:17.378Z,95405.86
2018-06-30T17:18:46.795Z,95410.48
2018-06-30T17:21:16.338Z,95398.48
2018-06-30T17:23:45.948Z,95404.25
2018-06-30T17:26:15.458Z,95405.72
2018-06-30T17:28:44.845Z,95407.23
2018-06-30T17:31:14.613Z,95406.59
2018-06-30T17:33:44.029Z,95409.22
2018-06-30T17:36:13.637Z,95406.75
2018-06-30T17:38:43.108Z,95410.55
2018-06-30T17:41:12.560Z,95414.14
2018-06-30T17:43:42.050Z,95414.33
2018-06-30T17:46:11.431Z,95416.30
2018-06-30T17:48:40.824Z,95416.76
2018-06-30T17:51:10.254Z,95408.20
2018-06-30T17:53:39.687Z,95415.63
2018-06-30T17:56:09.089Z,95419.66
2018-06-30T17:58:38.574Z,95415.25
2018-06-30T18:01:08.271Z,95423.16
2018-06-30T18:03:37.716Z,95421.64
2018-06-30T18:06:07.070Z,95419.34
2018-06-30T18:08:36.531Z,95421.77
2018-06-30T18:11:06.131Z,95423.93
2018-06-30T18:13:35.624Z,95425.96
2018-06-30T18:16:05.340Z,95426.08
2018-06-30T18:18:35.176Z,95434.19
2018-06-30T18:21:04.874Z,95433.16
2018-06-30T18:23:34.342Z,95439.19
2018-06-30T18:26:03.729Z,95435.41
2018-06-30T18:28:33.208Z,95434.88
2018-06-30T18:31:02.553Z,95433.86
2018-06-30T18:33:31.985Z,95441.37
2018-06-30T18:36:01.373Z,95440.89
2018-06-30T18:38:30.835Z,95438.56
2018-06-30T18:41:00.250Z,95439.64
2018-06-30T18:43:29.747Z,95448.17
2018-06-30T18:45:59.329Z,95451.95
2018-06-30T18:48:28.828Z,95451.55
2018-06-30T18:50:58.298Z,95451.70
2018-06-30T18:53:34.830Z,95450.34
2018-06-30T18:56:04.331Z,95452.05
2018-06-30T18:58:33.700Z,95458.84
2018-06-30T19:01:03.085Z,95458.70
2018-06-30T19:03:32.533Z,95458.11
2018-06-30T19:06:01.920Z,95461.63
2018-06-30T19:08:31.393Z,95462.99
2018-06-30T19:11:00.711Z,95462.44
2018-06-30T19:13:30.280Z,95464.67
2018-06-30T19:15:59.801Z,95461.08
2018-06-30T19:18:29.225Z,95466.58
2018-06-30T19:20:58.668Z,95464.16
2018-06-30T19:23:28.266Z,95470.20
2018-06-30T19:25:58.111Z,95469.09
2018-06-30T19:28:27.583Z,95470.92
2018-06-30T19:30:57.049Z,95470.03
2018-06-30T19:33:26.615Z,95480.33
2018-06-30T19:35:56.006Z,95482.14
2018-06-30T19:38:25.532Z,95486.60
2018-06-30T19:40:55.001Z,95494.72
2018-06-30T19:43:24.490Z,95493.98
2018-06-30T19:45:53.958Z,95497.88
2018-06-30T19:48:23.331Z,95493.72
2018-06-30T19:50:52.771Z,95492.17
2018-06-30T19:53:22.281Z,95501.23
2018-06-30T19:55:51.690Z,95503.47
2018-06-30T19:58:21.117Z,95501.08
2018-06-30T20:00:50.544Z,95506.08
2018-06-30T20:03:19.895Z,95510.59
2018-06-30T20:05:49.340Z,95504.71
2018-06-30T20:08:18.509Z,95503.94
2018-06-30T20:10:47.861Z,95505.96
2018-06-30T20:13:17.402Z,95507.15
2018-06-30T20:15:47.201Z,95499.69
2018-06-30T20:18:16.653Z,95507.10
2018-06-30T20:20:46.396Z,95505.38
2018-06-30T20:23:15.878Z,95504.13
2018-06-30T20:25:45.470Z,95513.02
2018-06-30T20:28:14.894Z,95512.79
2018-06-30T20:30:44.326Z,95505.16
2018-06-30T20:33:13.671Z,95505.38
2018-06-30T20:35:43.076Z,95511.00
2018-06-30T20:38:12.677Z,95514.75
2018-06-30T20:40:42.094Z,95512.19
2018-06-30T20:43:11.487Z,95516.68
2018-06-30T20:45:41.245Z,95517.34
2018-06-30T20:48:10.577Z,95511.75
2018-06-30T20:50:39.965Z,95516.12
2018-06-30T20:53:09.379Z,95518.25
2018-06-30T20:55:38.717Z,95516.18
2018-06-30T20:58:08.098Z,95522.56
2018-06-30T21:00:37.611Z,95515.18
2018-06-30T21:03:07.206Z,95522.34
2018-06-30T21:05:36.566Z,95527.20
2018-06-30T21:08:05.952Z,95519.86
2018-06-30T21:10:35.289Z,95520.00
2018-06-30T21:13:04.776Z,95519.78
2018-06-30T21:15:34.131Z,95518.38
2018-06-30T21:18:05.025Z,95518.25
2018-06-30T21:20:34.427Z,95523.05
2018-06-30T21:23:05.213Z,95518.17
2018-06-30T21:25:35.701Z,95522.00
2018-06-30T21:28:05.604Z,95519.13
2018-06-30T21:30:37.306Z,95529.54
2018-06-30T21:33:06.873Z,95523.05
2018-06-30T21:35:36.245Z,95527.16
2018-06-30T21:38:05.722Z,95530.98
2018-06-30T21:40:35.062Z,95534.91
2018-06-30T21:43:04.507Z,95536.17
2018-06-30T21:45:33.830Z,95534.18
2018-06-30T21:48:03.334Z,95538.52
2018-06-30T21:50:32.702Z,95537.78
2018-06-30T21:53:02.118Z,95538.38
2018-06-30T21:55:31.495Z,95543.55
2018-06-30T21:58:00.854Z,95545.59
2018-06-30T22:00:50.160Z,95551.25
2018-06-30T22:03:23.217Z,95550.75
2018-06-30T22:05:53.976Z,95552.60
2018-06-30T22:08:23.433Z,95546.82
2018-06-30T22:10:52.876Z,95555.02
2018-06-30T22:13:22.157Z,95552.59
2018-06-30T22:15:51.609Z,95556.80
2018-06-30T22:18:21.008Z,95550.89
2018-06-30T22:20:50.303Z,95554.75
2018-06-30T22:23:19.671Z,95550.23
2018-06-30T22:25:49.034Z,95552.75
2018-06-30T22:28:18.393Z,95554.06
2018-06-30T22:30:47.745Z,95556.65
2018-06-30T22:33:17.118Z,95560.50
2018-06-30T22:35:46.500Z,95560.34
2018-06-30T22:38:15.853Z,95557.64
2018-06-30T22:40:45.209Z,95551.20
2018-06-30T22:43:14.565Z,95559.64
2018-06-30T22:45:43.943Z,95555.86
2018-06-30T22:48:13.305Z,95555.25
2018-06-30T22:50:42.622Z,95554.05
2018-06-30T22:53:11.941Z,95557.90
2018-06-30T22:55:41.493Z,95568.57
2018-06-30T22:58:10.793Z,95565.09
2018-06-30T23:00:40.117Z,95562.97
2018-06-30T23:03:11.736Z,95567.13
2018-06-30T23:05:42.106Z,95564.52
2018-06-30T23:08:12.166Z,95567.49
2018-06-30T23:10:41.540Z,95562.70
2018-06-30T23:13:10.882Z,95561.59
2018-06-30T23:15:40.022Z,95563.23
2018-06-30T23:18:09.361Z,95558.21
2018-06-30T23:20:38.721Z,95559.86
2018-06-30T23:23:09.185Z,95557.53
2018-06-30T23:25:39.217Z,95559.17
2018-06-30T23:28:08.965Z,95557.66
2018-06-30T23:30:38.277Z,95558.67
2018-06-30T23:33:07.619Z,95554.69
2018-06-30T23:35:36.983Z,95563.95
2018-06-30T23:38:06.592Z,95563.77
2018-06-30T23:40:36.910Z,95562.12
2018-06-30T23:43:06.026Z,95563.80
2018-06-30T23:45:35.430Z,95559.78
2018-06-30T23:48:05.040Z,95557.77
2018-06-30T23:50:34.405Z,95555.61
2018-06-30T23:53:05.226Z,95553.52
2018-06-30T23:55:34.989Z,95564.03
2018-06-30T23:58:04.411Z,95565.37
